createdAt,value
2018-06-19T00:04:12.630Z,101538.32
2018-06-19T00:09:15.693Z,101534.05
2018-06-19T00:14:18.752Z,101531.77
2018-06-19T00:19:21.886Z,101529.98
2018-06-19T00:24:24.951Z,101531.41
2018-06-19T00:29:27.968Z,101532.91
2018-06-19T00:34:31.011Z,101532.36
2018-06-19T00:39:34.046Z,101529.69
2018-06-19T00:44:37.086Z,101532.98
2018-06-19T00:49:40.089Z,101534.94
2018-06-19T00:54:43.166Z,101541.05
2018-06-19T00:59:46.243Z,101541.73
2018-06-19T01:04:49.318Z,101550.82
2018-06-19T01:09:52.313Z,101559.32
2018-06-19T01:14:55.342Z,101564.88
2018-06-19T01:19:58.361Z,101555.91
2018-06-19T01:25:01.409Z,101555.99
2018-06-19T01:30:04.550Z,101557.05
2018-06-19T01:35:07.656Z,101551.45
2018-06-19T01:40:10.680Z,101553.95
2018-06-19T01:45:13.868Z,101544.38
2018-06-19T01:50:16.933Z,101553.80
2018-06-19T01:55:19.986Z,101549.98
2018-06-19T02:00:23.006Z,101552.34
2018-06-19T02:05:26.062Z,101542.83
2018-06-19T02:10:29.061Z,101549.69
2018-06-19T02:15:32.099Z,101543.81
2018-06-19T02:20:35.203Z,101535.97
2018-06-19T02:25:38.271Z,101531.51
2018-06-19T02:30:41.309Z,101538.39
2018-06-19T02:35:44.514Z,101531.67
2018-06-19T02:40:48.998Z,101528.44
2018-06-19T02:45:52.082Z,101535.58
2018-06-19T02:50:55.099Z,101536.12
2018-06-19T02:55:58.136Z,101529.67
2018-06-19T03:01:01.149Z,101531.41
2018-06-19T03:06:04.519Z,101522.48
2018-06-19T03:11:07.602Z,101526.38
2018-06-19T03:16:10.663Z,101517.09
2018-06-19T03:21:13.697Z,101518.91
2018-06-19T03:26:16.714Z,101523.39
2018-06-19T03:31:19.735Z,101523.22
2018-06-19T03:36:22.755Z,101525.77
2018-06-19T03:41:25.752Z,101532.13
2018-06-19T03:46:28.728Z,101538.89
2018-06-19T03:51:31.705Z,101545.84
2018-06-19T03:56:34.746Z,101543.28
2018-06-19T04:01:37.758Z,101545.20
2018-06-19T04:06:40.748Z,101549.67
2018-06-19T04:11:43.806Z,101553.39
2018-06-19T04:16:46.887Z,101563.73
2018-06-19T04:21:49.934Z,101564.88
2018-06-19T04:26:52.940Z,101565.65
2018-06-19T04:31:55.975Z,101567.47
2018-06-19T04:36:59.022Z,101565.59
2018-06-19T04:42:02.046Z,101572.63
2018-06-19T04:47:05.030Z,101573.86
2018-06-19T04:52:08.097Z,101571.42
2018-06-19T04:57:11.109Z,101576.89
2018-06-19T05:02:14.187Z,101576.92
2018-06-19T05:07:17.285Z,101586.53
2018-06-19T05:12:20.292Z,101595.25
2018-06-19T05:17:23.409Z,101596.85
2018-06-19T05:22:26.385Z,101595.30
2018-06-19T05:27:29.390Z,101596.25
2018-06-19T05:32:32.374Z,101598.01
2018-06-19T05:37:35.373Z,101602.41
2018-06-19T05:42:38.405Z,101605.83
2018-06-19T05:47:41.390Z,101604.25
2018-06-19T05:52:44.450Z,101613.30
2018-06-19T05:57:47.414Z,101616.52
2018-06-19T06:02:50.419Z,101620.52
2018-06-19T06:07:53.388Z,101620.23
2018-06-19T06:12:56.357Z,101615.12
2018-06-19T06:17:59.390Z,101621.98
2018-06-19T06:23:02.382Z,101625.00
2018-06-19T06:28:05.484Z,101630.34
2018-06-19T06:33:08.492Z,101637.77
2018-06-19T06:38:11.498Z,101641.30
2018-06-19T06:43:14.534Z,101636.80
2018-06-19T06:48:17.549Z,101628.41
2018-06-19T06:53:20.528Z,101632.09
2018-06-19T06:58:23.814Z,101628.42
2018-06-19T07:03:26.812Z,101641.93
2018-06-19T07:08:29.826Z,101635.69
2018-06-19T07:13:32.902Z,101638.19
2018-06-19T07:18:35.872Z,101639.48
2018-06-19T07:23:38.852Z,101660.12
2018-06-19T07:28:41.845Z,101659.88
2018-06-19T07:33:44.874Z,101662.94
2018-06-19T07:38:47.929Z,101677.14
2018-06-19T07:43:50.943Z,101683.44
2018-06-19T07:48:54.205Z,101689.12
2018-06-19T07:53:57.175Z,101688.16
2018-06-19T07:59:00.180Z,101701.25
2018-06-19T08:04:03.177Z,101694.28
2018-06-19T08:09:08.762Z,101698.88
2018-06-19T08:14:11.745Z,101708.53
2018-06-19T08:19:14.858Z,101720.39
2018-06-19T08:24:17.845Z,101713.81
2018-06-19T08:29:20.821Z,101716.75
2018-06-19T08:34:23.788Z,101722.65
2018-06-19T08:39:26.796Z,101722.44
2018-06-19T08:44:29.798Z,101724.53
2018-06-19T08:49:32.791Z,101735.90
2018-06-19T08:54:35.754Z,101736.38
2018-06-19T08:59:38.829Z,101739.09
2018-06-19T09:04:41.881Z,101748.84
2018-06-19T09:09:44.974Z,101766.71
2018-06-19T09:14:48.009Z,101781.33
2018-06-19T09:19:51.032Z,101788.03
2018-06-19T09:24:54.039Z,101798.94
2018-06-19T09:29:57.028Z,101794.44
2018-06-19T09:35:00.022Z,101802.27
2018-06-19T09:40:03.086Z,101802.81
2018-06-19T09:45:06.148Z,101806.96
2018-06-19T09:50:09.118Z,101809.78
2018-06-19T09:55:12.185Z,101808.95
2018-06-19T10:00:21.744Z,101819.68
2018-06-19T10:05:24.753Z,101812.58
2018-06-19T10:10:27.825Z,101809.23
2018-06-19T10:15:30.850Z,101813.89
2018-06-19T10:20:33.873Z,101810.72
2018-06-19T10:25:36.903Z,101819.42
2018-06-19T10:30:39.905Z,101817.50
2018-06-19T10:35:42.889Z,101822.38
2018-06-19T10:40:45.920Z,101819.59
2018-06-19T10:45:49.011Z,101814.30
2018-06-19T10:50:52.389Z,101807.05
2018-06-19T10:55:55.397Z,101807.84
2018-06-19T11:00:58.422Z,101818.67
2018-06-19T11:06:01.438Z,101823.47
2018-06-19T11:11:04.504Z,101814.17
2018-06-19T11:16:07.531Z,101803.42
2018-06-19T11:21:10.575Z,101811.02
2018-06-19T11:26:14.070Z,101810.34
2018-06-19T11:31:17.088Z,101811.31
2018-06-19T11:36:20.110Z,101810.61
2018-06-19T11:41:23.141Z,101814.69
2018-06-19T11:46:26.125Z,101805.58
2018-06-19T11:51:29.214Z,101813.23
2018-06-19T11:56:32.189Z,101818.74
2018-06-19T12:01:35.180Z,101818.91
2018-06-19T12:06:38.182Z,101820.29
2018-06-19T12:11:41.251Z,101809.84
2018-06-19T12:16:44.290Z,101824.55
2018-06-19T12:21:47.349Z,101825.40
2018-06-19T12:26:50.486Z,101829.73
2018-06-19T12:31:53.483Z,101827.63
2018-06-19T12:36:56.462Z,101826.11
2018-06-19T12:41:59.494Z,101827.22
2018-06-19T12:47:02.498Z,101820.77
2018-06-19T12:52:22.821Z,101833.22
2018-06-19T12:57:25.861Z,101842.58
2018-06-19T13:02:28.829Z,101836.34
2018-06-19T13:07:31.818Z,101838.52
2018-06-19T13:13:24.668Z,101841.50
2018-06-19T13:18:45.028Z,101845.62
2018-06-19T13:23:48.074Z,101848.94
2018-06-19T13:30:09.118Z,101846.86
2018-06-19T13:35:12.117Z,101847.14
2018-06-19T13:41:30.121Z,101843.02
2018-06-19T13:46:33.162Z,101846.27
2018-06-19T13:51:36.198Z,101844.93
2018-06-19T13:56:51.206Z,101839.77
2018-06-19T14:01:54.388Z,101843.06
2018-06-19T14:06:57.327Z,101843.34
2018-06-19T14:12:24.462Z,101841.25
2018-06-19T14:17:27.493Z,101846.16
2018-06-19T14:22:30.510Z,101849.66
2018-06-19T14:27:33.653Z,101866.31
2018-06-19T14:32:36.640Z,101858.11
2018-06-19T14:37:39.955Z,101857.00
2018-06-19T14:42:42.950Z,101865.25
2018-06-19T14:47:45.958Z,101856.83
2018-06-19T14:52:48.953Z,101853.87
2018-06-19T14:57:52.054Z,101856.05
2018-06-19T15:02:55.092Z,101861.53
2018-06-19T15:07:58.165Z,101860.41
2018-06-19T15:13:01.230Z,101858.81
2018-06-19T15:18:05.142Z,101851.79
2018-06-19T15:23:08.153Z,101850.06
2018-06-19T15:28:11.131Z,101848.94
2018-06-19T15:33:14.310Z,101844.30
2018-06-19T15:38:17.318Z,101856.55
2018-06-19T15:43:20.337Z,101852.05
2018-06-19T15:48:23.430Z,101857.77
2018-06-19T15:53:26.599Z,101861.88
2018-06-19T15:58:29.756Z,101847.14
2018-06-19T16:03:32.846Z,101853.09
2018-06-19T16:08:35.859Z,101857.92
2018-06-19T16:13:38.946Z,101868.09
2018-06-19T16:18:49.174Z,101867.38
2018-06-19T16:23:52.393Z,101867.47
2018-06-19T16:28:56.939Z,101866.50
2018-06-19T16:34:00.052Z,101860.26
2018-06-19T16:39:05.243Z,101860.26
2018-06-19T16:44:08.426Z,101868.28
2018-06-19T16:49:11.462Z,101869.58
2018-06-19T16:54:14.475Z,101876.20
2018-06-19T16:59:19.510Z,101864.74
2018-06-19T17:04:23.575Z,101854.99
2018-06-19T17:09:26.879Z,101853.81
2018-06-19T17:14:30.085Z,101855.53
2018-06-19T17:19:33.727Z,101848.70
2018-06-19T17:24:36.843Z,101859.23
2018-06-19T17:29:39.989Z,101858.08
2018-06-19T17:34:43.166Z,101855.52
2018-06-19T17:39:46.401Z,101860.25
2018-06-19T17:44:49.394Z,101854.17
2018-06-19T17:49:52.550Z,101858.88
2018-06-19T17:54:55.577Z,101856.00
2018-06-19T17:59:58.846Z,101855.41
2018-06-19T18:05:01.913Z,101850.70
2018-06-19T18:10:04.997Z,101856.83
2018-06-19T18:15:08.106Z,101852.66
2018-06-19T18:20:11.219Z,101852.38
2018-06-19T18:25:14.322Z,101849.37
2018-06-19T18:30:17.402Z,101849.48
2018-06-19T18:35:20.449Z,101850.63
2018-06-19T18:40:23.465Z,101849.44
2018-06-19T18:45:26.559Z,101852.05
2018-06-19T18:50:29.650Z,101848.62
2018-06-19T18:55:32.860Z,101855.35
2018-06-19T19:00:36.115Z,101851.89
2018-06-19T19:05:41.344Z,101849.91
2018-06-19T19:10:49.682Z,101852.26
2018-06-19T19:15:58.478Z,101862.55
2018-06-19T19:21:02.970Z,101861.86
2018-06-19T19:26:06.944Z,101855.97
2018-06-19T19:31:10.200Z,101862.04
2018-06-19T19:37:17.243Z,101867.02
2018-06-19T19:42:20.912Z,101871.77
2018-06-19T19:48:31.817Z,101873.96
2018-06-19T19:53:35.710Z,101882.30
2018-06-19T19:58:44.386Z,101892.41
2018-06-19T20:03:48.101Z,101898.48
2018-06-19T20:08:51.132Z,101896.47
2018-06-19T20:13:54.237Z,101890.66
2018-06-19T20:18:57.299Z,101900.58
2018-06-19T20:24:00.355Z,101901.36
2018-06-19T20:29:03.844Z,101904.23
2018-06-19T20:34:06.968Z,101910.05
2018-06-19T20:39:10.178Z,101911.12
2018-06-19T20:44:13.197Z,101910.84
2018-06-19T20:49:16.209Z,101908.11
2018-06-19T20:54:19.269Z,101910.95
2018-06-19T20:59:22.349Z,101910.22
2018-06-19T21:04:25.692Z,101915.13
2018-06-19T21:09:28.742Z,101915.64
2018-06-19T21:14:31.858Z,101917.84
2018-06-19T21:19:34.909Z,101918.88
2018-06-19T21:24:37.965Z,101914.11
2018-06-19T21:29:41.008Z,101916.01
2018-06-19T21:34:44.035Z,101911.08
2018-06-19T21:39:47.055Z,101917.54
2018-06-19T21:44:50.365Z,101840.34
2018-06-19T21:49:53.382Z,101912.50
2018-06-19T21:54:56.404Z,101921.34
2018-06-19T21:59:59.416Z,101919.08
2018-06-19T22:05:03.726Z,101924.52
2018-06-19T22:10:06.773Z,101918.41
2018-06-19T22:15:09.790Z,101921.34
2018-06-19T22:20:12.814Z,101917.74
2018-06-19T22:25:15.862Z,101916.67
2018-06-19T22:30:18.886Z,101918.51
2018-06-19T22:35:21.946Z,101913.64
2018-06-19T22:40:25.085Z,101914.11
2018-06-19T22:45:28.111Z,101918.31
2018-06-19T22:50:31.154Z,101914.11
2018-06-19T22:55:34.246Z,101916.04
2018-06-19T23:00:37.274Z,101919.64
2018-06-19T23:05:40.339Z,101912.30
2018-06-19T23:10:43.330Z,101910.70
2018-06-19T23:15:46.342Z,101915.63
2018-06-19T23:20:49.429Z,101914.50
2018-06-19T23:25:52.498Z,101912.40
2018-06-19T23:30:55.573Z,101909.06
2018-06-19T23:35:58.638Z,101905.56
2018-06-19T23:41:01.700Z,101901.66
2018-06-19T23:46:04.721Z,101900.23
2018-06-19T23:51:07.746Z,101908.33
2018-06-19T23:56:10.798Z,101894.80
